^^
Meteo Knjazevac Station Historical Data
Daily Summary for July 21, 2021 Units:  Metric    English   Both
Daily Weekly Monthly Yearly Custom
  High: Low: Average:
Temperature: 17.9 °C 3.4 °C 9.7 °C
Dew Point: 9.3 °C 2.4 °C 5.8 °C
Humidity: 96% 54% 78%
Wind Speed: 11.3km/h 0km/h 3.4km/h
Wind Gust: 19.3km/h - -
Wind- - SW
Pressure: 1022.2 hPa 1014.8 hPa -
Precipitation: 0 mm    
Historical Graphs
 
 
Tabular Data for July 21, 2021
Time Temperature Dew Point Pressure Wind Wind Speed Wind Gust Humidity Rainfall Rate (Hourly) solar Conditions
00:00 4.6 °C 3.9 °C 1022.2 hPa Calm   4.8 km/h 95% 0 mm 0 W/m2
00:10 4.7 °C 3.9 °C 1022.2 hPa North 1.6 km/h 3.2 km/h 95% 0 mm 0 W/m2
00:20 4.8 °C 4.1 °C 1022.2 hPa Calm   3.2 km/h 95% 0 mm 0 W/m2
00:30 4.9 °C 4.2 °C 1022.2 hPa Calm   3.2 km/h 95% 0 mm 0 W/m2
00:40 5.2 °C 4.4 °C 1022.2 hPa Calm   4.8 km/h 95% 0 mm 0 W/m2
00:50 5.3 °C 4.6 °C 1022.2 hPa ESE 1.6 km/h 4.8 km/h 95% 0 mm 0 W/m2
01:00 5.4 °C 4.7 °C 1022.2 hPa ENE 1.6 km/h 3.2 km/h 95% 0 mm 0 W/m2
01:10 5.6 °C 4.9 °C 1021.9 hPa SE 3.2 km/h 4.8 km/h 95% 0 mm 0 W/m2
01:20 5.8 °C 5.1 °C 1021.9 hPa Calm   4.8 km/h 95% 0 mm 0 W/m2
01:30 5.9 °C 5.2 °C 1021.9 hPa Calm   3.2 km/h 95% 0 mm 0 W/m2
01:40 6 °C 5.3 °C 1021.9 hPa Calm   3.2 km/h 95% 0 mm 0 W/m2
01:50 6.1 °C 5.2 °C 1021.9 hPa Calm   3.2 km/h 94% 0 mm 0 W/m2
02:00 6 °C 5.1 °C 1021.6 hPa West 1.6 km/h 4.8 km/h 94% 0 mm 0 W/m2
02:10 6 °C 4.9 °C 1021.6 hPa Calm   3.2 km/h 93% 0 mm 0 W/m2
02:20 6.1 °C 5.1 °C 1021.6 hPa Calm   1.6 km/h 94% 0 mm 0 W/m2
02:30 6.1 °C 5.1 °C 1021.2 hPa Calm   3.2 km/h 93% 0 mm 0 W/m2
02:40 6.1 °C 5.1 °C 1021.6 hPa Calm   4.8 km/h 93% 0 mm 0 W/m2
02:50 6 °C 4.8 °C 1021.2 hPa Calm   3.2 km/h 92% 0 mm 0 W/m2
03:00 5.9 °C 4.8 °C 1021.2 hPa NW 1.6 km/h 3.2 km/h 93% 0 mm 0 W/m2
03:10 5.8 °C 4.8 °C 1021.2 hPa Calm   3.2 km/h 93% 0 mm 0 W/m2
03:20 5.8 °C 4.8 °C 1021.2 hPa Calm   1.6 km/h 93% 0 mm 0 W/m2
03:30 5.9 °C 5 °C 1021.2 hPa Calm   3.2 km/h 94% 0 mm 0 W/m2
03:40 6 °C 5.1 °C 1020.9 hPa NNE 1.6 km/h 3.2 km/h 94% 0 mm 0 W/m2
03:50 6 °C 5.1 °C 1020.9 hPa Calm   3.2 km/h 94% 0 mm 0 W/m2
04:00 6 °C 5.1 °C 1020.9 hPa Calm     94% 0 mm 0 W/m2
04:10 6.1 °C 5.2 °C 1020.9 hPa Calm   3.2 km/h 94% 0 mm 0 W/m2
04:20 6.2 °C 5.3 °C 1020.9 hPa Calm   1.6 km/h 94% 0 mm 0 W/m2
04:30 6.2 °C 5.3 °C 1020.9 hPa Calm   1.6 km/h 94% 0 mm 0 W/m2
04:40 6.2 °C 5.2 °C 1020.9 hPa Calm   3.2 km/h 93% 0 mm 0 W/m2
04:50 6.2 °C 5.3 °C 1020.5 hPa Calm   3.2 km/h 94% 0 mm 0 W/m2
05:00 6.2 °C 5.2 °C 1020.5 hPa Calm   3.2 km/h 93% 0 mm 0 W/m2
05:10 6 °C 4.9 °C 1020.5 hPa Calm   3.2 km/h 93% 0 mm 0 W/m2
05:20 5.8 °C 4.8 °C 1020.5 hPa WNW 3.2 km/h 3.2 km/h 93% 0 mm 0 W/m2
05:30 5.4 °C 4.4 °C 1020.2 hPa West 4.8 km/h 4.8 km/h 93% 0 mm 0 W/m2
05:40 5.2 °C 4.3 °C 1020.2 hPa West 3.2 km/h 4.8 km/h 94% 0 mm 0 W/m2
05:50 5 °C 4.1 °C 1020.2 hPa WNW 3.2 km/h 8 km/h 94% 0 mm 0 W/m2
06:00 4.9 °C 4 °C 1020.2 hPa West 4.8 km/h 8 km/h 94% 0 mm 0 W/m2
06:10 4.7 °C 3.9 °C 1020.2 hPa West 8 km/h 9.7 km/h 95% 0 mm 0 W/m2
06:20 4.6 °C 3.9 °C 1020.2 hPa West 4.8 km/h 11.3 km/h 95% 0 mm 0 W/m2
06:30 4.4 °C 3.7 °C 1020.2 hPa West 4.8 km/h 9.7 km/h 95% 0 mm 0 W/m2
06:40 4 °C 3.1 °C 1020.2 hPa West 3.2 km/h 8 km/h 94% 0 mm 8 W/m2
06:50 3.6 °C 2.6 °C 1020.2 hPa West 4.8 km/h 8 km/h 93% 0 mm 11 W/m2
07:00 3.4 °C 2.5 °C 1020.2 hPa West 4.8 km/h 8 km/h 94% 0 mm 27 W/m2
07:10 3.5 °C 2.9 °C 1020.2 hPa West 4.8 km/h 8 km/h 96% 0 mm 43 W/m2
07:20 3.5 °C 2.9 °C 1020.2 hPa West 4.8 km/h 8 km/h 96% 0 mm 61 W/m2
07:30 3.6 °C 3 °C 1020.2 hPa West 3.2 km/h 8 km/h 96% 0 mm 81 W/m2
07:40 4 °C 3.4 °C 1020.2 hPa WNW 3.2 km/h 6.4 km/h 96% 0 mm 102 W/m2
07:50 4.5 °C 3.9 °C 1019.9 hPa West 3.2 km/h 4.8 km/h 96% 0 mm 124 W/m2
08:00 4.9 °C 4.2 °C 1019.9 hPa Calm   3.2 km/h 95% 0 mm 144 W/m2
08:10 5.5 °C 4.8 °C 1019.9 hPa WNW 1.6 km/h 3.2 km/h 95% 0 mm 167 W/m2
08:20 6.2 °C 5.3 °C 1019.5 hPa West 1.6 km/h 3.2 km/h 94% 0 mm 188 W/m2
08:30 6.9 °C 5.9 °C 1019.5 hPa WSW 1.6 km/h 6.4 km/h 93% 0 mm 208 W/m2
08:40 7.6 °C 6.2 °C 1019.2 hPa SW 1.6 km/h 3.2 km/h 91% 0 mm 228 W/m2
08:50 8.3 °C 6.8 °C 1019.2 hPa WSW 1.6 km/h 4.8 km/h 90% 0 mm 246 W/m2
09:00 9.1 °C 6.9 °C 1019.2 hPa WNW 3.2 km/h 6.4 km/h 86% 0 mm 264 W/m2
09:10 9.6 °C 7.1 °C 1019.2 hPa West 3.2 km/h 6.4 km/h 84% 0 mm 281 W/m2
09:20 10.2 °C 7.4 °C 1019.2 hPa SW 1.6 km/h 6.4 km/h 83% 0 mm 297 W/m2
09:30 10.7 °C 7.6 °C 1018.8 hPa West 1.6 km/h 4.8 km/h 81% 0 mm 312 W/m2
09:40 11.2 °C 7.7 °C 1018.8 hPa NW 3.2 km/h 9.7 km/h 79% 0 mm 326 W/m2
09:50 11.6 °C 7.9 °C 1018.8 hPa West 3.2 km/h 8 km/h 78% 0 mm 339 W/m2
10:00 12.1 °C 8.1 °C 1018.5 hPa West 1.6 km/h 6.4 km/h 77% 0 mm 350 W/m2
10:10 12.6 °C 8.5 °C 1018.5 hPa South 3.2 km/h 8 km/h 76% 0 mm 360 W/m2
10:20 13 °C 8.4 °C 1018.5 hPa SW 4.8 km/h 11.3 km/h 74% 0 mm 369 W/m2
10:30 13.4 °C 8.7 °C 1018.2 hPa SW 4.8 km/h 11.3 km/h 73% 0 mm 376 W/m2
10:40 13.7 °C 8.8 °C 1017.8 hPa SW 8 km/h 9.7 km/h 72% 0 mm 382 W/m2
10:50 14.2 °C 8.8 °C 1017.8 hPa SW 4.8 km/h 11.3 km/h 70% 0 mm 386 W/m2
11:00 14.7 °C 9.1 °C 1017.5 hPa SW 3.2 km/h 9.7 km/h 69% 0 mm 389 W/m2
11:10 15.2 °C 8.9 °C 1017.5 hPa SW 8 km/h 12.9 km/h 66% 0 mm 390 W/m2
11:20 15.6 °C 9 °C 1017.2 hPa WSW 8 km/h 14.5 km/h 65% 0 mm 390 W/m2
11:30 15.8 °C 9 °C 1017.2 hPa WSW 9.7 km/h 12.9 km/h 64% 0 mm 389 W/m2
11:40 16 °C 8.9 °C 1016.8 hPa SW 8 km/h 12.9 km/h 63% 0 mm 386 W/m2
11:50 16.2 °C 9.2 °C 1016.8 hPa SW 8 km/h 11.3 km/h 63% 0 mm 382 W/m2
12:00 16.6 °C 9.3 °C 1016.5 hPa SW 9.7 km/h 14.5 km/h 62% 0 mm 376 W/m2
12:10 16.8 °C 9 °C 1016.5 hPa SW 9.7 km/h 14.5 km/h 60% 0 mm 368 W/m2
12:20 17.1 °C 9 °C 1016.1 hPa SW 9.7 km/h 12.9 km/h 59% 0 mm 327 W/m2
12:30 17.3 °C 9 °C 1016.1 hPa SW 9.7 km/h 16.1 km/h 58% 0 mm 350 W/m2
12:40 17.6 °C 9.2 °C 1015.8 hPa SW 9.7 km/h 19.3 km/h 58% 0 mm 338 W/m2
12:50 17.5 °C 8.9 °C 1015.8 hPa SW 8 km/h 19.3 km/h 57% 0 mm 326 W/m2
13:00 17.6 °C 9 °C 1015.8 hPa SW 9.7 km/h 16.1 km/h 57% 0 mm 312 W/m2
13:10 17.7 °C 8.6 °C 1015.5 hPa SW 11.3 km/h 19.3 km/h 55% 0 mm 297 W/m2
13:20 17.8 °C 8.6 °C 1015.5 hPa SW 11.3 km/h 17.7 km/h 55% 0 mm 281 W/m2
13:30 17.9 °C 8.4 °C 1015.5 hPa SW 11.3 km/h 16.1 km/h 54% 0 mm 264 W/m2
13:40 17.8 °C 8.4 °C 1015.5 hPa SW 11.3 km/h 19.3 km/h 54% 0 mm 246 W/m2
13:50 17.8 °C 8.4 °C 1015.1 hPa SW 11.3 km/h 19.3 km/h 54% 0 mm 227 W/m2
14:00 17.8 °C 8.4 °C 1015.1 hPa SW 11.3 km/h 19.3 km/h 54% 0 mm 207 W/m2
14:10 17.7 °C 8.3 °C 1015.1 hPa SW 11.3 km/h 17.7 km/h 54% 0 mm 187 W/m2
14:20 17.8 °C 8.4 °C 1015.1 hPa SW 9.7 km/h 14.5 km/h 54% 0 mm 166 W/m2
14:30 17.7 °C 8.3 °C 1014.8 hPa SW 9.7 km/h 16.1 km/h 54% 0 mm 145 W/m2
14:40 17.6 °C 8.2 °C 1014.8 hPa SW 9.7 km/h 14.5 km/h 54% 0 mm 124 W/m2
14:50 17.6 °C 8.2 °C 1014.8 hPa SW 8 km/h 12.9 km/h 54% 0 mm 103 W/m2
15:00 17.4 °C 8 °C 1014.8 hPa SW 8 km/h 12.9 km/h 54% 0 mm 83 W/m2
15:10 17.3 °C 8.2 °C 1014.8 hPa SW 8 km/h 12.9 km/h 55% 0 mm 63 W/m2
15:20 17.2 °C 8.1 °C 1014.8 hPa SW 8 km/h 11.3 km/h 55% 0 mm 44 W/m2
15:30 17 °C 7.9 °C 1014.8 hPa SW 4.8 km/h 9.7 km/h 55% 0 mm 26 W/m2
15:40 16.7 °C 8.1 °C 1014.8 hPa SW 3.2 km/h 11.3 km/h 57% 0 mm 10 W/m2
15:50 16.3 °C 7.7 °C 1014.8 hPa South 3.2 km/h 9.7 km/h 57% 0 mm 12 W/m2
16:00 15.4 °C 7.2 °C 1014.8 hPa SSE 3.2 km/h 8 km/h 58% 0 mm 6 W/m2
16:10 14.8 °C 6.8 °C 1014.8 hPa SSE 1.6 km/h 6.4 km/h 59% 0 mm 0 W/m2
16:20 14.2 °C 6.6 °C 1014.8 hPa South 3.2 km/h 6.4 km/h 60% 0 mm 0 W/m2
16:30 13.7 °C 6.5 °C 1014.8 hPa SSW 1.6 km/h 8 km/h 62% 0 mm 0 W/m2
16:40 13.1 °C 6.2 °C 1014.8 hPa SW 3.2 km/h 8 km/h 63% 0 mm 0 W/m2
16:50 12.7 °C 5.8 °C 1014.8 hPa SW 1.6 km/h 6.4 km/h 63% 0 mm 0 W/m2
17:00 12.2 °C 5.6 °C 1014.8 hPa South 1.6 km/h 8 km/h 64% 0 mm 0 W/m2
17:10 11.7 °C 5.3 °C 1014.8 hPa SW 1.6 km/h 4.8 km/h 65% 0 mm 0 W/m2
17:20 11.3 °C 5.4 °C 1014.8 hPa South 3.2 km/h 9.7 km/h 67% 0 mm 0 W/m2
17:30 10.9 °C 5.2 °C 1015.1 hPa SSW 1.6 km/h 8 km/h 68% 0 mm 0 W/m2
17:40 10.7 °C 5.1 °C 1015.1 hPa South 3.2 km/h 8 km/h 68% 0 mm 0 W/m2
17:50 10.3 °C 4.8 °C 1015.1 hPa SSW 3.2 km/h 8 km/h 69% 0 mm 0 W/m2
18:00 10 °C 4.6 °C 1014.8 hPa Calm   6.4 km/h 69% 0 mm 0 W/m2
18:10 9.8 °C 4.6 °C 1015.1 hPa East 1.6 km/h 8 km/h 70% 0 mm 0 W/m2
18:20 9.7 °C 4.4 °C 1015.1 hPa South 1.6 km/h 8 km/h 70% 0 mm 0 W/m2
18:30 9.4 °C 4.7 °C 1015.1 hPa SSE 1.6 km/h 4.8 km/h 72% 0 mm 0 W/m2
18:40 9.2 °C 4.4 °C 1015.1 hPa Calm   4.8 km/h 72% 0 mm 0 W/m2
18:50 8.9 °C 4.4 °C 1015.1 hPa Calm   3.2 km/h 73% 0 mm 0 W/m2
19:00 8.8 °C 4.2 °C 1015.1 hPa East 1.6 km/h 3.2 km/h 73% 0 mm 0 W/m2
19:10 8.6 °C 4.2 °C 1015.1 hPa Calm   4.8 km/h 74% 0 mm 0 W/m2
19:20 8.3 °C 3.9 °C 1015.1 hPa WNW 1.6 km/h 3.2 km/h 74% 0 mm 0 W/m2
19:30 8.2 °C 4 °C 1015.1 hPa North 3.2 km/h 4.8 km/h 75% 0 mm 0 W/m2
19:40 7.9 °C 4.2 °C 1015.5 hPa NW 1.6 km/h 4.8 km/h 77% 0 mm 0 W/m2
19:50 7.8 °C 4 °C 1015.5 hPa Calm   3.2 km/h 77% 0 mm 0 W/m2
20:00 7.7 °C 3.9 °C 1015.5 hPa Calm   4.8 km/h 77% 0 mm 0 W/m2
20:10 7.3 °C 3.7 °C 1015.5 hPa NW 1.6 km/h 3.2 km/h 78% 0 mm 0 W/m2
20:20 7.2 °C 3.7 °C 1015.5 hPa West 1.6 km/h 6.4 km/h 79% 0 mm 0 W/m2
20:30 7 °C 3.4 °C 1015.5 hPa West 3.2 km/h 9.7 km/h 78% 0 mm 0 W/m2
20:40 6.8 °C 3.4 °C 1015.5 hPa Calm   4.8 km/h 79% 0 mm 0 W/m2
20:50 6.5 °C 3.1 °C 1015.5 hPa NW 1.6 km/h 6.4 km/h 79% 0 mm 0 W/m2
21:00 6.3 °C 3.1 °C 1015.5 hPa Calm   4.8 km/h 80% 0 mm 0 W/m2
21:10 5.9 °C 2.6 °C 1015.5 hPa Calm   3.2 km/h 79% 0 mm 0 W/m2
21:20 5.6 °C 2.4 °C 1015.5 hPa NW 1.6 km/h 4.8 km/h 80% 0 mm 0 W/m2
21:30 5.4 °C 2.4 °C 1015.5 hPa NW 1.6 km/h 6.4 km/h 81% 0 mm 0 W/m2
21:40 5.4 °C 2.8 °C 1015.5 hPa West 1.6 km/h 4.8 km/h 83% 0 mm 0 W/m2
Knjazevac, Serbia
Compliments of Weather Underground - 2 mb